createdAt,value
2017-08-08T00:00:36.113Z,19.70
2017-08-08T00:03:03.570Z,19.70
2017-08-08T00:05:31.049Z,19.70
2017-08-08T00:07:58.491Z,19.60
2017-08-08T00:10:26.313Z,19.60
2017-08-08T00:12:53.792Z,19.60
2017-08-08T00:15:21.221Z,19.50
2017-08-08T00:17:48.657Z,19.50
2017-08-08T00:20:16.260Z,19.50
2017-08-08T00:22:43.714Z,19.50
2017-08-08T00:25:11.171Z,19.40
2017-08-08T00:27:38.810Z,19.30
2017-08-08T00:30:06.226Z,19.30
2017-08-08T00:32:33.649Z,19.30
2017-08-08T00:35:01.103Z,19.30
2017-08-08T00:37:28.531Z,19.30
2017-08-08T00:39:56.359Z,19.20
2017-08-08T00:42:23.830Z,19.20
2017-08-08T00:44:51.284Z,19.20
2017-08-08T00:47:19.078Z,19.10
2017-08-08T00:49:46.554Z,19.10
2017-08-08T00:52:13.995Z,19.10
2017-08-08T00:54:41.443Z,19.10
2017-08-08T00:57:08.910Z,19.00
2017-08-08T00:59:36.337Z,19.00
2017-08-08T01:02:03.774Z,19.00
2017-08-08T01:04:31.779Z,19.00
2017-08-08T01:06:59.488Z,19.00
2017-08-08T01:09:26.923Z,18.90
2017-08-08T01:11:54.574Z,18.90
2017-08-08T01:14:21.998Z,18.90
2017-08-08T01:16:49.436Z,18.90
2017-08-08T01:19:17.049Z,18.90
2017-08-08T01:21:44.869Z,18.80
2017-08-08T01:24:12.291Z,18.80
2017-08-08T01:26:39.927Z,18.70
2017-08-08T01:29:07.387Z,18.70
2017-08-08T01:31:34.818Z,18.60
2017-08-08T01:34:02.278Z,18.60
2017-08-08T01:36:29.731Z,18.60
2017-08-08T01:38:57.169Z,18.60
2017-08-08T01:41:24.657Z,18.60
2017-08-08T01:43:52.071Z,18.60
2017-08-08T01:46:19.879Z,18.60
2017-08-08T01:48:47.351Z,18.60
2017-08-08T01:51:15.621Z,18.60
2017-08-08T01:53:43.073Z,18.60
2017-08-08T01:56:10.515Z,18.60
2017-08-08T01:58:37.961Z,18.60
2017-08-08T02:01:05.375Z,18.60
2017-08-08T02:03:33.559Z,18.70
2017-08-08T02:06:00.985Z,18.70
2017-08-08T02:08:28.423Z,18.70
2017-08-08T02:10:55.878Z,18.80
2017-08-08T02:13:23.425Z,18.80
2017-08-08T02:15:50.876Z,18.80
2017-08-08T02:18:18.331Z,18.80
2017-08-08T02:20:46.726Z,18.90
2017-08-08T02:23:14.176Z,18.90
2017-08-08T02:25:41.617Z,18.90
2017-08-08T02:28:09.018Z,18.90
2017-08-08T02:30:36.436Z,19.00
2017-08-08T02:33:03.895Z,19.00
2017-08-08T02:35:31.969Z,19.00
2017-08-08T02:37:59.413Z,19.10
2017-08-08T02:40:26.885Z,19.20
2017-08-08T02:42:54.732Z,19.20
2017-08-08T02:45:22.188Z,19.20
2017-08-08T02:47:49.662Z,19.20
2017-08-08T02:50:17.098Z,19.30
2017-08-08T02:52:44.516Z,19.30
2017-08-08T02:55:11.955Z,19.30
2017-08-08T02:57:39.393Z,19.40
2017-08-08T03:00:06.848Z,19.40
2017-08-08T03:02:34.318Z,19.40
2017-08-08T03:05:01.767Z,19.50
2017-08-08T03:07:29.211Z,19.50
2017-08-08T03:09:57.395Z,19.60
2017-08-08T03:12:25.374Z,19.60
2017-08-08T03:14:52.803Z,19.60
2017-08-08T03:17:20.260Z,19.60
2017-08-08T03:19:48.070Z,19.60
2017-08-08T03:22:15.509Z,19.60
2017-08-08T03:24:42.962Z,19.60
2017-08-08T03:27:11.239Z,19.60
2017-08-08T03:29:38.674Z,19.60
2017-08-08T03:32:06.119Z,19.70
2017-08-08T03:34:33.537Z,19.70
2017-08-08T03:37:00.974Z,19.60
2017-08-08T03:39:28.829Z,19.60
2017-08-08T03:41:56.244Z,19.60
2017-08-08T03:44:23.689Z,19.50
2017-08-08T03:46:51.173Z,19.50
2017-08-08T03:49:18.604Z,19.50
2017-08-08T03:51:46.446Z,19.40
2017-08-08T03:54:13.899Z,19.50
2017-08-08T03:56:41.366Z,19.40
2017-08-08T03:59:08.775Z,19.40
2017-08-08T04:01:36.211Z,19.40
2017-08-08T04:04:03.678Z,19.40
2017-08-08T04:06:31.493Z,19.40
2017-08-08T04:08:58.947Z,19.40
2017-08-08T04:11:26.366Z,19.40
2017-08-08T04:13:54.179Z,19.40
2017-08-08T04:16:21.643Z,19.40
2017-08-08T04:18:49.311Z,19.40
2017-08-08T04:21:16.758Z,19.40
2017-08-08T04:23:44.243Z,19.40
2017-08-08T04:26:11.687Z,19.40
2017-08-08T04:28:39.120Z,19.40
2017-08-08T04:31:06.993Z,19.40
2017-08-08T04:33:34.840Z,19.50
2017-08-08T04:36:02.292Z,19.50
2017-08-08T04:38:29.748Z,19.50
2017-08-08T04:40:57.183Z,19.50
2017-08-08T04:43:24.609Z,19.50
2017-08-08T04:45:52.066Z,19.50
2017-08-08T04:48:19.507Z,19.50
2017-08-08T04:50:46.934Z,19.50
2017-08-08T04:53:14.404Z,19.50
2017-08-08T04:55:41.845Z,19.50
2017-08-08T04:58:09.284Z,19.60
2017-08-08T05:00:36.738Z,19.60
2017-08-08T05:03:04.170Z,19.60
2017-08-08T05:05:31.603Z,19.60
2017-08-08T05:07:59.055Z,19.60
2017-08-08T05:10:26.501Z,19.60
2017-08-08T05:12:54.308Z,19.70
2017-08-08T05:15:21.765Z,19.70
2017-08-08T05:17:49.195Z,19.70
2017-08-08T05:20:16.648Z,19.80
2017-08-08T05:22:44.507Z,19.80
2017-08-08T05:25:11.930Z,19.80
2017-08-08T05:27:39.380Z,19.80
2017-08-08T05:30:06.967Z,19.90
2017-08-08T05:32:34.403Z,19.80
2017-08-08T05:35:01.828Z,19.90
2017-08-08T05:37:29.298Z,19.90
2017-08-08T05:39:57.140Z,19.90
2017-08-08T05:42:24.572Z,19.90
2017-08-08T05:44:52.040Z,20.00
2017-08-08T05:47:19.612Z,20.00
2017-08-08T05:49:47.039Z,20.00
2017-08-08T05:52:14.495Z,20.00
2017-08-08T05:54:41.957Z,20.00
2017-08-08T05:57:09.413Z,20.10
2017-08-08T05:59:37.220Z,20.00
2017-08-08T06:02:04.659Z,20.10
2017-08-08T06:04:32.214Z,20.00
2017-08-08T06:07:00.058Z,20.10
2017-08-08T06:09:27.496Z,20.10
2017-08-08T06:11:54.950Z,20.10
2017-08-08T06:14:22.375Z,20.10
2017-08-08T06:16:50.193Z,20.10
2017-08-08T06:19:17.669Z,20.10
2017-08-08T06:21:45.086Z,20.20
2017-08-08T06:24:12.531Z,20.20
2017-08-08T06:26:40.381Z,20.20
2017-08-08T06:29:08.216Z,20.30
2017-08-08T06:31:35.660Z,20.30
2017-08-08T06:34:03.115Z,20.30
2017-08-08T06:36:30.531Z,20.30
2017-08-08T06:38:58.009Z,20.30
2017-08-08T06:41:25.460Z,20.30
2017-08-08T06:43:52.916Z,20.30
2017-08-08T06:46:21.034Z,20.30
2017-08-08T06:48:48.478Z,20.30
2017-08-08T06:51:15.900Z,20.30
2017-08-08T06:53:43.850Z,20.30
2017-08-08T06:56:11.254Z,20.40
2017-08-08T06:58:38.711Z,20.40
2017-08-08T07:01:06.166Z,20.40
2017-08-08T07:03:33.634Z,20.40
2017-08-08T07:06:01.086Z,20.40
2017-08-08T07:08:28.546Z,20.50
2017-08-08T07:10:56.007Z,20.50
2017-08-08T07:13:23.455Z,20.60
2017-08-08T07:15:50.915Z,20.60
2017-08-08T07:18:18.369Z,20.60
2017-08-08T07:20:45.839Z,20.60
2017-08-08T07:23:13.618Z,20.60
2017-08-08T07:25:41.027Z,20.60
2017-08-08T07:28:08.472Z,20.70
2017-08-08T07:30:35.915Z,20.70
2017-08-08T07:33:03.359Z,20.80
2017-08-08T07:35:30.827Z,20.90
2017-08-08T07:37:58.263Z,21.00
2017-08-08T07:40:25.719Z,21.00
2017-08-08T07:42:53.175Z,21.00
2017-08-08T07:45:21.019Z,21.00
2017-08-08T07:47:48.521Z,21.00
2017-08-08T07:50:15.966Z,21.00
2017-08-08T07:52:43.414Z,21.00
2017-08-08T07:55:10.965Z,21.00
2017-08-08T07:57:38.408Z,21.00
2017-08-08T08:00:05.840Z,21.00
2017-08-08T08:02:33.348Z,21.00
2017-08-08T08:05:00.776Z,21.00
2017-08-08T08:07:28.232Z,21.00
2017-08-08T08:09:55.705Z,21.10
2017-08-08T08:12:23.118Z,21.10
2017-08-08T08:14:50.956Z,21.20
2017-08-08T08:17:18.424Z,21.20
2017-08-08T08:19:45.859Z,21.20
2017-08-08T08:22:13.335Z,21.30
2017-08-08T08:24:40.796Z,21.30
2017-08-08T08:27:08.258Z,21.40
2017-08-08T08:29:35.712Z,21.40
2017-08-08T08:32:03.146Z,21.40
2017-08-08T08:34:30.589Z,21.40
2017-08-08T08:36:58.458Z,21.40
2017-08-08T08:39:25.909Z,21.40
2017-08-08T08:41:53.325Z,21.40
2017-08-08T08:44:20.809Z,21.40
2017-08-08T08:46:48.267Z,21.40
2017-08-08T08:49:15.726Z,21.40
2017-08-08T08:51:43.330Z,21.40
2017-08-08T08:54:10.802Z,21.40
2017-08-08T08:56:38.227Z,21.40
2017-08-08T08:59:05.714Z,21.40
2017-08-08T09:01:33.145Z,21.40
2017-08-08T09:04:00.600Z,21.40
2017-08-08T09:06:28.052Z,21.40
2017-08-08T09:08:55.491Z,21.40
2017-08-08T09:11:23.358Z,21.30
2017-08-08T09:13:51.172Z,21.30
2017-08-08T09:16:18.611Z,21.30
2017-08-08T09:18:46.207Z,21.30
2017-08-08T09:21:13.639Z,21.30
2017-08-08T09:23:41.079Z,21.30
2017-08-08T09:26:08.939Z,21.20
2017-08-08T09:28:36.787Z,21.20
2017-08-08T09:31:04.222Z,21.20
2017-08-08T09:33:31.711Z,21.20
2017-08-08T09:35:59.155Z,21.20
2017-08-08T09:38:26.581Z,21.20
2017-08-08T09:40:54.015Z,21.20
2017-08-08T09:43:21.440Z,21.20
2017-08-08T09:45:49.087Z,21.20
2017-08-08T09:48:16.548Z,21.20
2017-08-08T09:50:43.986Z,21.10
2017-08-08T09:53:11.874Z,21.10
2017-08-08T09:55:39.460Z,21.10
2017-08-08T09:58:06.890Z,21.10
2017-08-08T10:00:34.749Z,21.00
2017-08-08T10:03:02.174Z,21.00
2017-08-08T10:05:29.619Z,21.00
2017-08-08T10:07:57.054Z,20.90
2017-08-08T10:10:24.556Z,20.90
2017-08-08T10:12:52.019Z,20.90
2017-08-08T10:15:19.480Z,20.90
2017-08-08T10:17:46.967Z,20.90
2017-08-08T10:20:14.409Z,20.90
2017-08-08T10:22:41.852Z,20.90
2017-08-08T10:25:09.334Z,21.00
2017-08-08T10:27:36.895Z,21.00
2017-08-08T10:30:04.350Z,21.10
2017-08-08T10:32:31.808Z,21.20
2017-08-08T10:34:59.236Z,21.20
2017-08-08T10:37:26.714Z,21.20
2017-08-08T10:39:54.213Z,21.20
2017-08-08T10:42:21.661Z,21.20
2017-08-08T10:44:49.094Z,21.10
2017-08-08T10:47:16.989Z,21.20
2017-08-08T10:49:44.417Z,21.20
2017-08-08T10:52:12.243Z,21.20
2017-08-08T10:54:39.738Z,21.20
2017-08-08T10:57:07.220Z,21.20
2017-08-08T10:59:34.652Z,21.20
2017-08-08T11:02:02.109Z,21.20
2017-08-08T11:04:29.541Z,21.20
2017-08-08T11:06:56.985Z,21.20
2017-08-08T11:09:25.305Z,21.20
2017-08-08T11:11:52.779Z,21.20
2017-08-08T11:14:20.797Z,21.20
2017-08-08T11:16:48.264Z,21.10
2017-08-08T11:19:15.729Z,21.10
2017-08-08T11:21:43.214Z,21.10
2017-08-08T11:24:10.637Z,21.10
2017-08-08T11:29:28.953Z,21.00
2017-08-08T11:31:56.390Z,21.00
2017-08-08T11:34:23.858Z,21.00
2017-08-08T11:36:51.310Z,21.00
2017-08-08T11:39:18.777Z,21.00
2017-08-08T11:41:46.245Z,20.90
2017-08-08T11:44:13.687Z,21.00
2017-08-08T11:46:41.157Z,21.00
2017-08-08T11:49:08.580Z,21.00
2017-08-08T11:51:36.094Z,21.10
2017-08-08T11:54:03.598Z,21.10
2017-08-08T11:56:31.458Z,21.20
2017-08-08T11:58:58.924Z,21.20
2017-08-08T12:01:26.495Z,21.20
2017-08-08T12:03:54.546Z,21.20
2017-08-08T12:06:22.057Z,21.20
2017-08-08T12:08:49.897Z,21.10
2017-08-08T12:11:17.633Z,21.10
2017-08-08T12:13:45.120Z,21.10
2017-08-08T12:16:12.545Z,21.10
2017-08-08T12:18:39.980Z,21.10
2017-08-08T12:21:07.457Z,21.10
2017-08-08T12:23:34.887Z,21.10
2017-08-08T12:26:02.340Z,21.10
2017-08-08T12:28:29.794Z,21.10
2017-08-08T12:30:57.209Z,21.10
2017-08-08T12:33:24.690Z,21.10
2017-08-08T12:35:52.100Z,21.00
2017-08-08T12:38:19.543Z,21.00
2017-08-08T12:40:47.011Z,21.00
2017-08-08T12:43:14.474Z,21.00
2017-08-08T12:45:41.912Z,21.10
2017-08-08T12:48:09.371Z,21.10
2017-08-08T12:50:36.810Z,21.20
2017-08-08T12:53:04.634Z,21.50
2017-08-08T12:55:32.090Z,21.50
2017-08-08T12:57:59.539Z,21.70
2017-08-08T13:00:27.805Z,21.80
2017-08-08T13:02:55.256Z,21.90
2017-08-08T13:05:22.706Z,22.00
2017-08-08T13:07:50.145Z,22.20
2017-08-08T13:10:17.643Z,22.30
2017-08-08T13:12:45.077Z,22.40
2017-08-08T13:15:12.515Z,22.50
2017-08-08T13:17:39.981Z,22.50
2017-08-08T13:20:07.425Z,22.60
2017-08-08T13:22:34.854Z,22.70
2017-08-08T13:25:02.390Z,22.70
2017-08-08T13:27:29.816Z,22.90
2017-08-08T13:29:57.533Z,22.90
2017-08-08T13:32:25.049Z,22.90
2017-08-08T13:34:52.482Z,22.90
2017-08-08T13:37:19.929Z,22.90
2017-08-08T13:39:47.384Z,22.90
2017-08-08T13:42:15.215Z,22.70
2017-08-08T13:44:42.661Z,22.70
2017-08-08T13:47:10.141Z,22.70
2017-08-08T13:49:37.587Z,22.70
2017-08-08T13:52:05.053Z,22.70
2017-08-08T13:54:32.492Z,22.70
2017-08-08T13:56:59.931Z,22.60
2017-08-08T13:59:27.389Z,22.60
2017-08-08T14:01:54.808Z,22.50
2017-08-08T14:04:22.234Z,22.40
2017-08-08T14:06:49.730Z,22.30
2017-08-08T14:09:17.150Z,22.20
2017-08-08T14:11:44.592Z,22.10
2017-08-08T14:14:12.469Z,22.00
2017-08-08T14:16:39.868Z,22.00
2017-08-08T14:19:07.292Z,21.90
2017-08-08T14:21:35.160Z,21.80
2017-08-08T14:24:02.595Z,21.80
2017-08-08T14:26:30.026Z,21.80
2017-08-08T14:28:57.488Z,21.80
2017-08-08T14:31:25.028Z,21.70
2017-08-08T14:33:52.441Z,21.70
2017-08-08T14:36:19.923Z,21.80
2017-08-08T14:38:47.407Z,21.80
2017-08-08T14:41:15.221Z,22.00
2017-08-08T14:43:42.673Z,22.00
2017-08-08T14:46:10.095Z,22.10
2017-08-08T14:48:37.923Z,22.30
2017-08-08T14:51:05.469Z,22.30
2017-08-08T14:53:32.899Z,22.30
2017-08-08T14:56:00.820Z,22.40
2017-08-08T14:58:28.243Z,22.40
2017-08-08T15:00:55.994Z,22.50
2017-08-08T15:03:23.457Z,22.50
2017-08-08T15:05:50.931Z,22.60
2017-08-08T15:08:18.737Z,22.70
2017-08-08T15:10:46.169Z,22.70
2017-08-08T15:13:14.274Z,22.80
2017-08-08T15:15:41.692Z,22.80
2017-08-08T15:18:09.567Z,23.00
2017-08-08T15:20:37.431Z,23.10
2017-08-08T15:23:04.894Z,23.10
2017-08-08T15:25:32.317Z,23.20
2017-08-08T15:27:59.762Z,23.30
2017-08-08T15:30:27.169Z,23.50
2017-08-08T15:32:54.642Z,23.60
2017-08-08T15:35:22.488Z,23.90
2017-08-08T15:37:49.945Z,23.90
2017-08-08T15:40:17.384Z,23.90
2017-08-08T15:42:44.812Z,24.00
2017-08-08T15:45:12.279Z,23.90
2017-08-08T15:47:39.707Z,23.90
2017-08-08T15:50:07.166Z,23.90
2017-08-08T15:52:34.598Z,23.80
2017-08-08T15:55:02.029Z,23.70
2017-08-08T15:57:29.898Z,23.60
2017-08-08T15:59:58.241Z,23.50
2017-08-08T16:02:25.673Z,23.50
2017-08-08T16:04:53.152Z,23.50
2017-08-08T16:07:20.615Z,23.50
2017-08-08T16:09:48.075Z,23.50
2017-08-08T16:12:16.045Z,23.50
2017-08-08T16:14:43.498Z,23.40
2017-08-08T16:17:10.962Z,23.40
2017-08-08T16:19:38.425Z,23.30
2017-08-08T16:22:05.875Z,23.20
2017-08-08T16:24:33.329Z,23.10
2017-08-08T16:27:00.780Z,23.10
2017-08-08T16:29:29.044Z,23.00
2017-08-08T16:31:56.886Z,23.10
2017-08-08T16:34:24.328Z,23.10
2017-08-08T16:36:51.739Z,23.10
2017-08-08T16:39:19.571Z,23.20
2017-08-08T16:41:47.043Z,23.20
2017-08-08T16:44:14.495Z,23.30
2017-08-08T16:46:57.603Z,23.30
2017-08-08T16:49:25.015Z,23.30
2017-08-08T16:51:52.439Z,23.20
2017-08-08T16:54:19.931Z,23.20
2017-08-08T16:56:47.341Z,23.20
2017-08-08T16:59:14.769Z,23.30
2017-08-08T17:01:42.219Z,23.30
2017-08-08T17:04:09.641Z,23.30
2017-08-08T17:06:37.065Z,23.40
2017-08-08T17:09:04.514Z,23.40
2017-08-08T17:11:32.346Z,23.40
2017-08-08T17:13:59.750Z,23.40
2017-08-08T17:16:27.601Z,23.50
2017-08-08T17:18:55.005Z,23.50
2017-08-08T17:21:22.422Z,23.60
2017-08-08T17:23:49.895Z,23.60
2017-08-08T17:26:17.323Z,23.50
2017-08-08T17:28:44.756Z,23.40
2017-08-08T17:31:12.188Z,23.40
2017-08-08T17:33:39.605Z,23.40
2017-08-08T17:36:07.020Z,23.40
2017-08-08T17:38:34.466Z,23.30
2017-08-08T17:41:01.887Z,23.30
2017-08-08T17:43:29.313Z,23.30
2017-08-08T17:45:57.872Z,23.30
2017-08-08T17:48:25.304Z,23.40
2017-08-08T17:50:52.714Z,23.40
2017-08-08T17:53:20.558Z,23.40
2017-08-08T17:55:47.999Z,23.40
2017-08-08T17:58:15.674Z,23.40
2017-08-08T18:00:43.145Z,23.20
2017-08-08T18:03:10.605Z,23.20
2017-08-08T18:05:38.099Z,23.20
2017-08-08T18:08:05.923Z,23.10
2017-08-08T18:10:33.363Z,23.10
2017-08-08T18:13:00.807Z,23.00
2017-08-08T18:15:28.645Z,23.00
2017-08-08T18:17:56.065Z,23.00
2017-08-08T18:20:23.480Z,22.90
2017-08-08T18:22:50.916Z,22.90
2017-08-08T18:25:18.342Z,22.80
2017-08-08T18:27:45.775Z,22.80
2017-08-08T18:30:13.620Z,22.60
2017-08-08T18:32:41.073Z,22.60
2017-08-08T18:35:08.533Z,22.60
2017-08-08T18:37:36.764Z,22.50
2017-08-08T18:40:04.190Z,22.50
2017-08-08T18:42:31.622Z,22.50
2017-08-08T18:44:59.034Z,22.50
2017-08-08T18:47:26.856Z,22.50
2017-08-08T18:49:54.287Z,22.50
2017-08-08T18:52:21.719Z,22.50
2017-08-08T18:54:49.134Z,22.50
2017-08-08T18:57:16.574Z,22.50
2017-08-08T18:59:44.764Z,22.40
2017-08-08T19:02:12.190Z,22.30
2017-08-08T19:04:39.610Z,22.40
2017-08-08T19:07:07.554Z,22.30
2017-08-08T19:09:34.984Z,22.30
2017-08-08T19:12:02.417Z,22.30
2017-08-08T19:14:30.676Z,22.20
2017-08-08T19:16:58.162Z,22.10
2017-08-08T19:19:25.583Z,22.10
2017-08-08T19:21:53.012Z,22.00
2017-08-08T19:24:20.427Z,22.00
2017-08-08T19:26:47.840Z,21.90
2017-08-08T19:29:15.293Z,21.90
2017-08-08T19:31:42.715Z,21.80
2017-08-08T19:34:10.132Z,21.70
2017-08-08T19:39:29.831Z,21.60
2017-08-08T19:41:57.380Z,21.60
2017-08-08T19:44:25.191Z,21.50
2017-08-08T19:46:52.645Z,21.40
2017-08-08T19:49:20.093Z,21.40
2017-08-08T19:51:47.519Z,21.30
2017-08-08T19:54:14.946Z,21.30
2017-08-08T19:56:42.396Z,21.30
2017-08-08T19:59:10.644Z,21.30
2017-08-08T20:01:38.062Z,21.20
2017-08-08T20:04:05.491Z,21.20
2017-08-08T20:06:35.991Z,21.20
2017-08-08T20:09:03.429Z,21.20
2017-08-08T20:11:30.836Z,21.20
2017-08-08T20:13:59.107Z,21.10
2017-08-08T20:16:26.517Z,21.10
2017-08-08T20:18:53.941Z,21.10
2017-08-08T20:21:21.774Z,21.00
2017-08-08T20:23:49.216Z,21.00
2017-08-08T20:26:17.785Z,21.00
2017-08-08T20:28:45.204Z,21.00
2017-08-08T20:31:12.644Z,21.00
2017-08-08T20:33:40.047Z,20.90
2017-08-08T20:36:07.461Z,20.90
2017-08-08T20:38:34.893Z,20.90
2017-08-08T20:41:02.324Z,20.80
2017-08-08T20:43:30.160Z,20.80
2017-08-08T20:46:00.572Z,20.80
2017-08-08T20:48:28.071Z,20.80
2017-08-08T20:50:56.298Z,20.70
2017-08-08T20:53:23.740Z,20.70
2017-08-08T20:55:51.161Z,20.70
2017-08-08T20:58:19.380Z,20.70
2017-08-08T21:00:47.667Z,20.60
2017-08-08T21:03:15.078Z,20.60
2017-08-08T21:05:42.497Z,20.60
2017-08-08T21:08:09.931Z,20.60
2017-08-08T21:10:37.755Z,20.60
2017-08-08T21:13:05.899Z,20.60
2017-08-08T21:15:33.358Z,20.60
2017-08-08T21:18:00.801Z,20.50
2017-08-08T21:20:28.218Z,20.50
2017-08-08T21:22:55.687Z,20.50
2017-08-08T21:25:23.113Z,20.50
2017-08-08T21:27:50.528Z,20.50
2017-08-08T21:30:18.186Z,20.50
2017-08-08T21:32:45.616Z,20.50
2017-08-08T21:35:13.030Z,20.40
2017-08-08T21:37:40.465Z,20.40
2017-08-08T21:40:07.903Z,20.40
2017-08-08T21:42:35.335Z,20.40
2017-08-08T21:45:02.794Z,20.40
2017-08-08T21:47:30.601Z,20.30
2017-08-08T21:49:58.040Z,20.40
2017-08-08T21:52:25.623Z,20.30
2017-08-08T21:54:53.633Z,20.30
2017-08-08T21:57:21.041Z,20.20
2017-08-08T21:59:48.483Z,20.20
2017-08-08T22:02:16.300Z,20.20
2017-08-08T22:04:43.725Z,20.20
2017-08-08T22:07:11.736Z,20.10
2017-08-08T22:09:39.152Z,20.10
2017-08-08T22:12:07.000Z,20.10
2017-08-08T22:14:34.588Z,20.10
2017-08-08T22:17:02.028Z,20.00
2017-08-08T22:19:29.497Z,20.00
2017-08-08T22:21:56.930Z,19.90
2017-08-08T22:24:24.374Z,19.90
2017-08-08T22:26:51.807Z,19.80
2017-08-08T22:29:19.788Z,19.60
2017-08-08T22:31:47.617Z,19.60
2017-08-08T22:34:15.051Z,19.60
2017-08-08T22:36:42.643Z,19.40
2017-08-08T22:39:10.899Z,19.40
2017-08-08T22:41:38.316Z,19.40
2017-08-08T22:44:05.901Z,19.30
2017-08-08T22:46:33.311Z,19.30
2017-08-08T22:49:00.737Z,19.30
2017-08-08T22:51:28.148Z,19.30
2017-08-08T22:53:55.563Z,19.20
2017-08-08T22:59:17.968Z,19.10
2017-08-08T23:01:45.406Z,19.00
2017-08-08T23:04:12.818Z,19.00
2017-08-08T23:06:40.249Z,18.90
2017-08-08T23:09:07.700Z,18.90
2017-08-08T23:11:35.153Z,18.90
2017-08-08T23:14:02.571Z,19.00
2017-08-08T23:16:30.034Z,19.00
2017-08-08T23:18:57.458Z,19.10
2017-08-08T23:21:24.927Z,19.00
2017-08-08T23:23:52.360Z,19.10
2017-08-08T23:26:19.787Z,19.00
2017-08-08T23:28:47.239Z,18.90
2017-08-08T23:31:15.055Z,18.80
2017-08-08T23:33:42.479Z,18.80
2017-08-08T23:36:15.879Z,18.80
2017-08-08T23:38:43.286Z,18.80
2017-08-08T23:41:10.720Z,18.70
2017-08-08T23:43:38.179Z,18.70
2017-08-08T23:46:11.392Z,18.70
2017-08-08T23:48:38.840Z,18.60
2017-08-08T23:51:06.278Z,18.70
2017-08-08T23:53:33.703Z,18.70
2017-08-08T23:56:01.280Z,18.70
2017-08-08T23:58:28.706Z,18.70
